Landrum, South Carolina
Current Conditions -  °F | °C
As of 7:53 AM on Sunday 28 Dec 2014 (Local Time) from KGSP Reporting Station
Light Rain Light Rain  
Wind Chill: 50°   Ceiling: 600
Heat Index: 50°   Visibility: 2mi
Dew Point: 50°   Wind: 8mph
Humidity: 100%   Direction: 220°SW
Pressure: 30.09"   Gusts: NA
Location:  35.18°N, 82.19°W
Report Text: KGSP 281253Z 22007KT 2SM -RA BR OVC006 10/10 A3009 RMK AO2 SLP185 P0002 T01000100
Loading
Personal Weather Stations






























Interactive Weather Map New forecast layout! Learn more

10-Day Weather Forecast

Advertisements
Track Severe Weather on mobile